Time;durP1;ratioP1;P1;durP2;ratioP2;P2;SDS_P1;SDS_P2;PMS_P1;PMS_P2;Temp;Humidity;BMP_temperature;BMP_pressure;BME280_temperature;BME280_humidity;BME280_pressure;Samples;Min_cycle;Max_cycle;Signal;HPM_P1;HPM_P2
2021/03/08 00:00:23;;;;;;;258.02;129.45;;;102.50;1817.60;;;;;;5093734;28;20050;-61
2021/03/08 00:02:50;;;;;;;245.65;124.15;;;102.60;1792.00;;;;;;5095325;28;20016;-61
2021/03/08 00:05:16;;;;;;;235.27;118.45;;;102.70;1766.40;;;;;;5095961;28;20074;-60
2021/03/08 00:07:44;;;;;;;235.27;118.60;;;102.60;1766.40;;;;;;5094750;28;20016;-62
2021/03/08 00:10:11;;;;;;;225.32;113.45;;;102.60;1766.40;;;;;;5095620;28;20012;-62
2021/03/08 00:12:36;;;;;;;209.75;105.50;;;102.60;1766.40;;;;;;5095057;28;20013;-61
2021/03/08 00:15:04;;;;;;;193.52;98.55;;;102.60;1740.80;;;;;;5094787;28;20479;-61
2021/03/08 00:17:30;;;;;;;196.93;95.07;;;102.60;1766.40;;;;;;5094373;28;20031;-61
2021/03/08 00:19:56;;;;;;;184.65;91.28;;;102.50;1740.80;;;;;;5094706;28;20731;-61
2021/03/08 00:22:21;;;;;;;186.63;93.30;;;102.40;1766.40;;;;;;5095410;28;20442;-62
2021/03/08 00:24:47;;;;;;;205.98;106.22;;;102.40;1766.40;;;;;;5094907;28;20031;-61
2021/03/08 00:27:13;;;;;;;203.38;101.65;;;102.40;1792.00;;;;;;5094902;28;20368;-60
2021/03/08 00:29:39;;;;;;;194.32;96.68;;;102.50;1740.80;;;;;;5094812;28;20135;-62
2021/03/08 00:32:07;;;;;;;205.35;100.18;;;102.50;1740.80;;;;;;5094193;28;20024;-62
2021/03/08 00:34:35;;;;;;;191.00;97.57;;;77.70;1792.00;;;;;;5093163;28;20095;-61
2021/03/08 00:37:01;;;;;;;208.05;100.93;;;77.70;1817.60;;;;;;5095069;28;20289;-62
2021/03/08 00:39:27;;;;;;;215.63;109.53;;;77.70;1817.60;;;;;;5096056;28;20198;-62
2021/03/08 00:41:54;;;;;;;224.55;108.53;;;102.40;1843.20;;;;;;5095439;28;20113;-69
2021/03/08 00:44:19;;;;;;;205.60;100.63;;;102.50;1817.60;;;;;;5094291;28;20104;-70
2021/03/08 00:46:45;;;;;;;202.63;100.95;;;102.60;1792.00;;;;;;5094103;28;20510;-70
2021/03/08 00:49:11;;;;;;;210.27;103.55;;;102.70;1766.40;;;;;;5094309;28;20028;-71
2021/03/08 00:51:37;;;;;;;188.00;97.78;;;102.70;1766.40;;;;;;5094230;28;20106;-70
2021/03/08 00:54:02;;;;;;;188.32;98.28;;;102.60;1740.80;;;;;;5093804;28;20376;-70
2021/03/08 00:56:28;;;;;;;168.25;88.53;;;102.50;1740.80;;;;;;5093961;28;20482;-71
2021/03/08 00:58:53;;;;;;;194.70;94.55;;;102.40;1715.20;;;;;;5094232;28;20436;-71
2021/03/08 01:01:19;;;;;;;196.55;97.32;;;102.40;1740.80;;;;;;5093835;28;20027;-69
2021/03/08 01:03:45;;;;;;;177.57;85.47;;;102.50;1766.40;;;;;;5094132;28;20021;-69
2021/03/08 01:06:11;;;;;;;153.02;73.03;;;102.70;1664.00;;;;;;5074916;28;20043;-70
2021/03/08 01:08:37;;;;;;;134.32;67.53;;;102.80;1612.80;;;;;;5094085;28;20026;-71
2021/03/08 01:11:02;;;;;;;134.73;65.57;;;102.90;1561.60;;;;;;5093772;28;20027;-69
2021/03/08 01:13:28;;;;;;;139.25;68.07;;;102.90;1561.60;;;;;;5094333;28;20027;-66
2021/03/08 01:15:54;;;;;;;115.70;59.88;;;103.00;1561.60;;;;;;5094162;28;20024;-68
2021/03/08 01:18:20;;;;;;;108.90;55.10;;;103.00;1536.00;;;;;;5094537;28;20085;-68
2021/03/08 01:20:47;;;;;;;107.28;55.08;;;103.10;1510.40;;;;;;5094215;28;20020;-67
2021/03/08 01:23:13;;;;;;;99.82;52.63;;;103.10;1484.80;;;;;;5094223;28;20197;-68
2021/03/08 01:25:39;;;;;;;91.25;49.60;;;103.10;1484.80;;;;;;5094388;28;20032;-68
2021/03/08 01:28:06;;;;;;;91.20;46.28;;;103.10;1459.20;;;;;;5094238;28;20031;-67
2021/03/08 01:30:38;;;;;;;88.80;45.95;;;103.20;1459.20;;;;;;5093805;28;20107;-68
2021/03/08 01:33:04;;;;;;;82.40;43.28;;;103.20;1408.00;;;;;;5093887;28;20013;-69
2021/03/08 01:35:30;;;;;;;77.82;42.90;;;103.10;1433.60;;;;;;5093368;28;20082;-67
2021/03/08 01:37:55;;;;;;;79.82;44.53;;;103.00;1433.60;;;;;;5093796;28;20038;-68
2021/03/08 01:40:24;;;;;;;80.85;42.40;;;103.00;1459.20;;;;;;5093561;28;20023;-68
2021/03/08 01:42:50;;;;;;;83.47;41.67;;;103.10;1433.60;;;;;;5092641;28;20028;-68
2021/03/08 01:45:19;;;;;;;79.05;43.53;;;103.00;1408.00;;;;;;5092411;28;20024;-69
2021/03/08 01:47:46;;;;;;;83.78;44.75;;;103.00;1433.60;;;;;;5092987;28;20457;-69
2021/03/08 01:50:36;;;;;;;84.28;44.95;;;103.00;1408.00;;;;;;5092795;28;20070;-68
2021/03/08 01:53:04;;;;;;;101.95;52.20;;;102.90;1433.60;;;;;;5092557;28;20024;-67
2021/03/08 01:55:30;;;;;;;99.55;50.83;;;102.70;1536.00;;;;;;5092635;28;20036;-68
2021/03/08 01:57:56;;;;;;;98.45;52.80;;;102.40;1587.20;;;;;;5093004;28;20512;-67
2021/03/08 02:00:24;;;;;;;104.90;53.03;;;77.70;1612.80;;;;;;5092672;28;20028;-69
2021/03/08 02:02:51;;;;;;;144.93;69.20;;;77.60;1664.00;;;;;;5092574;28;20102;-67
2021/03/08 02:05:20;;;;;;;167.85;83.15;;;77.60;1740.80;;;;;;5092635;28;20074;-69
2021/03/08 02:07:46;;;;;;;176.80;90.03;;;77.60;1792.00;;;;;;5092575;28;20020;-68
2021/03/08 02:10:14;;;;;;;198.80;98.43;;;77.60;1843.20;;;;;;5092516;28;20073;-68
2021/03/08 02:12:48;;;;;;;217.57;107.13;;;77.60;1945.60;;;;;;5092999;28;20065;-69
2021/03/08 02:15:53;;;;;;;205.65;107.72;;;77.40;2048.00;;;;;;5092855;28;20026;-70
2021/03/08 02:18:42;;;;;;;222.82;113.75;;;77.40;2048.00;;;;;;5092435;28;20093;-70
2021/03/08 02:21:26;;;;;;;;;;;77.30;2150.40;;;;;;5093680;28;20024;-68
2021/03/08 02:24:04;;;;;;;232.00;113.97;;;77.40;2124.80;;;;;;5092718;28;20007;-68
2021/03/08 02:26:35;;;;;;;224.18;112.63;;;77.40;2150.40;;;;;;5092496;28;20024;-68
2021/03/08 02:29:05;;;;;;;233.57;113.30;;;77.50;2124.80;;;;;;5093257;28;20035;-67
2021/03/08 02:31:32;;;;;;;224.18;115.03;;;77.40;2124.80;;;;;;5093065;28;20024;-69
2021/03/08 02:34:03;;;;;;;225.05;110.32;;;77.30;2176.00;;;;;;5092744;28;20482;-69
2021/03/08 02:36:35;;;;;;;195.70;95.10;;;77.10;2150.40;;;;;;5072695;28;20115;-69
2021/03/08 02:39:17;;;;;;;189.55;99.32;;;77.30;2048.00;;;;;;5072351;28;20021;-69
2021/03/08 02:41:47;;;;;;;122.03;61.25;;;77.50;1996.80;;;;;;5072528;28;20021;-69
2021/03/08 02:44:14;;;;;;;110.78;53.97;;;77.60;1766.40;;;;;;5082116;28;20028;-68
2021/03/08 02:46:43;;;;;;;102.55;49.40;;;77.70;1715.20;;;;;;5091902;28;20115;-68
2021/03/08 02:49:19;;;;;;;92.65;48.47;;;102.40;1612.80;;;;;;5092403;28;20110;-67
2021/03/08 02:51:54;;;;;;;89.05;46.33;;;102.40;1587.20;;;;;;5091951;28;20095;-67
2021/03/08 02:54:22;;;;;;;84.75;42.92;;;102.40;1587.20;;;;;;5091042;28;20086;-68
2021/03/08 02:56:51;;;;;;;87.50;45.40;;;102.50;1587.20;;;;;;5092176;28;20024;-68
2021/03/08 02:59:19;;;;;;;90.88;43.78;;;102.50;1587.20;;;;;;5095979;28;20252;-69
2021/03/08 03:01:47;;;;;;;86.28;42.60;;;102.50;1587.20;;;;;;5096021;28;20414;-67
2021/03/08 03:04:15;;;;;;;83.97;43.22;;;102.50;1587.20;;;;;;5095567;28;20081;-67
2021/03/08 03:06:44;;;;;;;80.53;43.75;;;102.50;1561.60;;;;;;5096396;28;20012;-68
2021/03/08 03:09:11;;;;;;;;;;;102.40;1561.60;;;;;;5096391;28;20123;-66
2021/03/08 03:11:39;;;;;;;85.13;41.55;;;102.40;1561.60;;;;;;5077764;28;20258;-66
2021/03/08 03:14:06;;;;;;;77.50;40.70;;;77.70;1612.80;;;;;;5096034;28;20032;-66
2021/03/08 03:16:33;;;;;;;75.28;40.67;;;77.60;1612.80;;;;;;5095461;28;20043;-66
2021/03/08 03:19:00;;;;;;;76.43;40.40;;;77.60;1638.40;;;;;;5095659;28;20012;-67
2021/03/08 03:21:30;;;;;;;78.30;40.22;;;77.60;1638.40;;;;;;5095979;28;20105;-64
2021/03/08 03:23:56;;;;;;;80.18;41.65;;;77.60;1612.80;;;;;;5095943;28;20024;-67
2021/03/08 03:26:22;;;;;;;74.35;39.40;;;77.60;1638.40;;;;;;5095932;28;20103;-69
2021/03/08 03:28:49;;;;;;;78.88;41.90;;;77.50;1638.40;;;;;;5096309;28;20020;-67
2021/03/08 03:31:18;;;;;;;77.13;40.45;;;77.40;1664.00;;;;;;5096138;28;20024;-66
2021/03/08 03:33:45;;;;;;;70.80;39.58;;;77.40;1664.00;;;;;;5095776;28;20024;-67
2021/03/08 03:36:12;;;;;;;76.25;39.67;;;77.30;1664.00;;;;;;5096157;28;20462;-66
2021/03/08 03:38:39;;;;;;;74.28;40.13;;;77.40;1664.00;;;;;;5095983;28;20089;-67
2021/03/08 03:41:05;;;;;;;75.13;40.15;;;77.40;1664.00;;;;;;5096219;28;20257;-67
2021/03/08 03:43:31;;;;;;;76.03;38.88;;;77.40;1638.40;;;;;;5077458;28;20439;-67
2021/03/08 03:46:02;;;;;;;71.20;37.70;;;77.50;1638.40;;;;;;5095866;28;20081;-66
2021/03/08 03:48:28;;;;;;;71.25;37.95;;;77.50;1612.80;;;;;;5095597;28;20024;-66
2021/03/08 03:50:54;;;;;;;66.13;38.13;;;77.50;1587.20;;;;;;5095798;28;20016;-65
2021/03/08 03:53:20;;;;;;;66.97;35.22;;;77.60;1587.20;;;;;;5095375;28;20485;-67
2021/03/08 03:55:45;;;;;;;69.25;34.55;;;77.50;1561.60;;;;;;5093744;28;20048;-67
2021/03/08 03:58:36;;;;;;;64.38;35.53;;;77.50;1561.60;;;;;;5095248;28;20024;-66
2021/03/08 04:01:08;;;;;;;63.40;31.67;;;77.40;1587.20;;;;;;5093848;28;20031;-67
2021/03/08 04:04:05;;;;;;;65.47;33.35;;;77.40;1561.60;;;;;;5094749;28;20012;-67
2021/03/08 04:06:40;;;;;;;62.55;33.65;;;77.40;1561.60;;;;;;5095129;28;20066;-67
2021/03/08 04:09:06;;;;;;;63.28;35.38;;;77.40;1561.60;;;;;;5094399;28;20047;-67
2021/03/08 04:11:34;;;;;;;67.40;35.28;;;77.50;1561.60;;;;;;5094805;28;20024;-67
2021/03/08 04:14:02;;;;;;;66.38;35.05;;;77.40;1587.20;;;;;;5080961;28;20024;-69
2021/03/08 04:16:30;;;;;;;63.30;33.45;;;77.50;1587.20;;;;;;5094541;28;20036;-67
2021/03/08 04:18:58;;;;;;;67.43;34.95;;;77.60;1561.60;;;;;;5094647;28;20028;-68
2021/03/08 04:21:25;;;;;;;73.82;37.05;;;77.60;1587.20;;;;;;5094778;28;20031;-65
2021/03/08 04:23:53;;;;;;;72.22;35.92;;;77.50;1587.20;;;;;;5094658;28;20366;-68
2021/03/08 04:26:20;;;;;;;75.43;39.13;;;77.40;1612.80;;;;;;5094483;28;20489;-69
2021/03/08 04:28:47;;;;;;;82.45;40.10;;;77.40;1638.40;;;;;;5094251;28;20698;-68
2021/03/08 04:31:13;;;;;;;76.28;38.80;;;77.40;1664.00;;;;;;5094677;28;20470;-66
2021/03/08 04:33:41;;;;;;;71.13;38.35;;;77.40;1689.60;;;;;;5094628;28;20471;-64
2021/03/08 04:36:09;;;;;;;74.55;38.35;;;77.30;1689.60;;;;;;5094012;28;20463;-67
2021/03/08 04:38:34;;;;;;;77.97;38.93;;;77.30;1689.60;;;;;;5094205;28;20496;-67
2021/03/08 04:41:01;;;;;;;69.30;38.13;;;77.30;1689.60;;;;;;5094379;28;20090;-66
2021/03/08 04:43:28;;;;;;;72.05;39.60;;;77.30;1689.60;;;;;;5094484;28;20024;-65
2021/03/08 04:45:55;;;;;;;73.95;39.38;;;77.20;1689.60;;;;;;5094031;28;20126;-67
2021/03/08 04:48:21;;;;;;;72.57;36.50;;;77.10;1689.60;;;;;;5094147;28;20055;-67
2021/03/08 04:50:50;;;;;;;74.22;39.67;;;77.00;1715.20;;;;;;5094158;28;20500;-67
2021/03/08 04:53:16;;;;;;;67.43;37.65;;;77.00;1715.20;;;;;;5093650;28;20375;-68
2021/03/08 04:55:43;;;;;;;78.13;39.83;;;77.00;1715.20;;;;;;5094161;28;20047;-66
2021/03/08 04:58:09;;;;;;;72.28;38.70;;;76.90;1715.20;;;;;;5094843;28;20023;-67
2021/03/08 05:00:35;;;;;;;70.97;37.20;;;76.90;1715.20;;;;;;5094224;28;20032;-66
2021/03/08 05:03:03;;;;;;;76.28;37.92;;;76.80;1740.80;;;;;;5094245;28;20031;-66
2021/03/08 05:05:30;;;;;;;76.95;38.38;;;76.80;1740.80;;;;;;5094314;28;20027;-67
2021/03/08 05:08:06;;;;;;;74.32;37.50;;;76.80;1740.80;;;;;;5094517;28;20057;-67
2021/03/08 05:10:34;;;;;;;73.85;36.65;;;76.80;1740.80;;;;;;5093996;28;20024;-67
2021/03/08 05:13:00;;;;;;;73.10;37.43;;;76.80;1740.80;;;;;;5094329;28;20020;-67
2021/03/08 05:15:27;;;;;;;70.22;36.78;;;52.10;1766.40;;;;;;5093905;28;20028;-67
2021/03/08 05:17:58;;;;;;;77.63;37.65;;;76.80;1740.80;;;;;;5094110;28;20028;-66
2021/03/08 05:20:24;;;;;;;72.22;37.28;;;77.00;1715.20;;;;;;5093313;28;20427;-66
2021/03/08 05:22:53;;;;;;;71.45;37.53;;;77.00;1740.80;;;;;;5093910;28;20032;-67
2021/03/08 05:25:20;;;;;;;73.60;38.90;;;77.00;1740.80;;;;;;5093141;28;20394;-68
2021/03/08 05:27:46;;;;;;;72.55;39.17;;;77.10;1715.20;;;;;;5093981;28;20035;-66
2021/03/08 05:30:17;;;;;;;70.15;36.88;;;77.20;1715.20;;;;;;5093811;28;20024;-67
2021/03/08 05:32:55;;;;;;;70.43;36.42;;;77.20;1689.60;;;;;;5094069;28;20044;-68
2021/03/08 05:35:23;;;;;;;70.65;38.10;;;77.20;1715.20;;;;;;5093180;28;20020;-68
2021/03/08 05:37:49;;;;;;;84.15;39.97;;;77.30;1689.60;;;;;;5094030;28;20021;-68
2021/03/08 05:40:33;;;;;;;71.97;35.25;;;77.30;1664.00;;;;;;5093530;28;20429;-68
2021/03/08 05:43:07;;;;;;;66.40;35.17;;;77.40;1638.40;;;;;;5093448;28;20052;-67
2021/03/08 05:45:35;;;;;;;71.68;35.35;;;77.50;1638.40;;;;;;5093489;28;20016;-67
2021/03/08 05:48:16;;;;;;;71.30;36.58;;;77.60;1638.40;;;;;;5093636;28;20111;-67
2021/03/08 05:51:09;;;;;;;62.95;33.72;;;77.60;1638.40;;;;;;5089801;28;20474;-67
2021/03/08 05:53:59;;;;;;;60.97;33.25;;;77.60;1612.80;;;;;;5075985;28;20045;-67
2021/03/08 05:56:37;;;;;;;60.85;32.85;;;77.70;1587.20;;;;;;5092690;28;20020;-69
2021/03/08 05:59:22;;;;;;;62.13;31.95;;;102.40;1561.60;;;;;;5093573;28;20031;-69
2021/03/08 06:02:24;;;;;;;61.67;32.95;;;102.50;1561.60;;;;;;5093736;28;20090;-69
2021/03/08 06:05:08;;;;;;;62.60;32.80;;;102.70;1536.00;;;;;;5093748;28;20031;-68
2021/03/08 06:08:23;;;;;;;58.35;32.88;;;102.60;1536.00;;;;;;5093029;28;20024;-68
2021/03/08 06:11:08;;;;;;;58.75;30.90;;;102.50;1561.60;;;;;;5093177;28;20095;-66
2021/03/08 06:13:42;;;;;;;58.67;31.55;;;102.80;1510.40;;;;;;5080681;28;20020;-64
2021/03/08 06:16:10;;;;;;;55.10;30.17;;;102.90;1510.40;;;;;;5092375;28;20040;-68
2021/03/08 06:18:44;;;;;;;54.80;31.13;;;103.10;1459.20;;;;;;5093282;28;20028;-69
2021/03/08 06:21:11;;;;;;;55.20;29.67;;;103.10;1459.20;;;;;;5093111;28;20023;-68
2021/03/08 06:23:41;;;;;;;78.75;45.53;;;103.20;1433.60;;;;;;5093207;28;20064;-68
2021/03/08 06:26:10;;;;;;;96.47;48.80;;;103.10;1561.60;;;;;;5075359;28;20440;-70
2021/03/08 06:28:36;;;;;;;96.55;51.70;;;103.00;1715.20;;;;;;5092677;28;20032;-69
2021/03/08 06:31:02;;;;;;;97.07;54.15;;;102.90;1766.40;;;;;;5094102;28;20016;-68
2021/03/08 06:33:29;;;;;;;98.10;49.60;;;103.00;1792.00;;;;;;5093371;28;20394;-68
2021/03/08 06:35:56;;;;;;;97.15;49.75;;;102.90;1817.60;;;;;;5092803;28;20054;-67
2021/03/08 06:38:24;;;;;;;93.07;52.28;;;103.00;1817.60;;;;;;5074306;28;20401;-66
2021/03/08 06:40:50;;;;;;;92.72;47.40;;;103.10;1817.60;;;;;;5092836;28;20070;-69
2021/03/08 06:43:15;;;;;;;84.30;46.75;;;103.10;1817.60;;;;;;5092386;28;20075;-66
2021/03/08 06:45:41;;;;;;;75.85;42.42;;;103.30;1792.00;;;;;;5091679;28;20081;-70
2021/03/08 06:48:08;;;;;;;70.20;38.83;;;103.30;1689.60;;;;;;5092387;28;20013;-67
2021/03/08 06:50:34;;;;;;;64.40;34.92;;;128.10;1664.00;;;;;;5092428;28;20016;-69
2021/03/08 06:52:59;;;;;;;55.28;31.25;;;128.10;1561.60;;;;;;5091978;28;20019;-69
2021/03/08 06:55:25;;;;;;;59.85;33.47;;;128.30;1484.80;;;;;;5084694;28;20035;-67
2021/03/08 06:57:51;;;;;;;58.13;34.60;;;128.40;1433.60;;;;;;5093258;28;20549;-68
2021/03/08 07:00:17;;;;;;;63.53;34.75;;;128.50;1433.60;;;;;;5092210;28;20020;-68
2021/03/08 07:02:47;;;;;;;61.42;35.33;;;128.50;1459.20;;;;;;5091602;28;20115;-65
2021/03/08 07:05:20;;;;;;;59.22;33.03;;;128.60;1433.60;;;;;;5091078;28;20016;-68
2021/03/08 07:07:53;;;;;;;63.70;34.25;;;128.80;1408.00;;;;;;5090790;28;20028;-69
2021/03/08 07:10:42;;;;;;;59.67;32.33;;;128.80;1382.40;;;;;;5091460;28;20141;-70
2021/03/08 07:13:11;;;;;;;60.40;34.30;;;128.70;1356.80;;;;;;5074840;28;20103;-69
2021/03/08 07:15:58;;;;;;;57.20;33.75;;;128.70;1382.40;;;;;;5091550;28;20104;-70
2021/03/08 07:18:24;;;;;;;66.20;34.40;;;128.80;1382.40;;;;;;5091608;28;20040;-69
2021/03/08 07:20:52;;;;;;;57.55;32.78;;;128.80;1382.40;;;;;;5091533;28;20052;-65
2021/03/08 07:23:25;;;;;;;61.05;35.13;;;153.60;1356.80;;;;;;5091936;28;20105;-65
2021/03/08 07:26:10;;;;;;;65.40;33.70;;;128.80;1331.20;;;;;;5092104;28;20031;-65
2021/03/08 07:28:37;;;;;;;60.75;34.35;;;128.70;1382.40;;;;;;5091195;28;20062;-64
2021/03/08 07:31:02;;;;;;;68.32;34.65;;;128.90;1331.20;;;;;;5091675;28;20032;-64
2021/03/08 07:33:28;;;;;;;59.10;34.03;;;128.70;1356.80;;;;;;5091612;28;20099;-64
2021/03/08 07:35:55;;;;;;;56.40;33.30;;;153.60;1356.80;;;;;;5091981;28;20028;-66
2021/03/08 07:38:33;;;;;;;66.15;34.45;;;153.70;1331.20;;;;;;5091608;28;20476;-65
2021/03/08 07:41:13;;;;;;;57.00;33.33;;;153.90;1331.20;;;;;;5073000;28;20028;-66
2021/03/08 07:43:41;;;;;;;58.95;34.05;;;154.00;1305.60;;;;;;5092737;28;20027;-64
2021/03/08 07:46:25;;;;;;;61.17;35.33;;;154.10;1305.60;;;;;;5095348;28;20062;-64
2021/03/08 07:48:50;;;;;;;61.88;36.15;;;154.00;1331.20;;;;;;5094396;28;20046;-67
2021/03/08 07:51:16;;;;;;;63.22;35.00;;;154.10;1331.20;;;;;;5095147;28;20024;-63
2021/03/08 07:53:42;;;;;;;60.17;34.85;;;154.30;1305.60;;;;;;5094566;28;20176;-64
2021/03/08 07:56:09;;;;;;;67.78;36.03;;;154.40;1331.20;;;;;;5095373;28;20122;-64
2021/03/08 07:58:37;;;;;;;60.20;33.67;;;154.50;1305.60;;;;;;5095724;28;20493;-65
2021/03/08 08:01:09;;;;;;;61.22;34.63;;;179.20;1280.00;;;;;;5096244;28;20024;-65
2021/03/08 08:03:38;;;;;;;60.38;35.47;;;179.30;1280.00;;;;;;5095335;28;20505;-63
2021/03/08 08:06:07;;;;;;;;;;;179.30;1280.00;;;;;;5095577;28;20600;-63
2021/03/08 08:08:54;;;;;;;64.20;35.45;;;179.30;1254.40;;;;;;5095175;28;19911;-66
2021/03/08 08:11:26;;;;;;;63.38;35.88;;;179.30;1254.40;;;;;;5095390;28;20017;-66
2021/03/08 08:14:01;;;;;;;68.45;37.80;;;179.30;1280.00;;;;;;5095460;28;20486;-65
2021/03/08 08:16:34;;;;;;;65.75;34.60;;;179.30;1280.00;;;;;;5095270;28;20085;-64
2021/03/08 08:19:05;;;;;;;59.90;35.90;;;179.30;1254.40;;;;;;5094786;28;20050;-65
2021/03/08 08:21:36;;;;;;;62.35;38.08;;;179.40;1280.00;;;;;;5094040;28;20051;-64
2021/03/08 08:24:04;;;;;;;63.05;37.67;;;179.40;1280.00;;;;;;5094341;28;20020;-70
2021/03/08 08:26:30;;;;;;;61.57;36.17;;;179.50;1280.00;;;;;;5095315;28;20398;-65
2021/03/08 08:28:58;;;;;;;65.95;35.83;;;179.60;1254.40;;;;;;5094962;28;20296;-66
2021/03/08 08:31:23;;;;;;;52.95;32.47;;;179.70;1254.40;;;;;;5077065;28;20507;-67
2021/03/08 08:33:49;;;;;;;51.40;28.92;;;179.80;1228.80;;;;;;5095599;28;20024;-67
2021/03/08 08:36:21;;;;;;;51.05;30.15;;;179.90;1177.60;;;;;;5095223;28;20036;-68
2021/03/08 08:38:53;;;;;;;66.05;35.60;;;180.00;1177.60;;;;;;5095471;28;20027;-68
2021/03/08 08:41:19;;;;;;;60.95;35.00;;;180.10;1203.20;;;;;;5095188;28;20058;-67
2021/03/08 08:43:46;;;;;;;50.83;30.60;;;204.80;1203.20;;;;;;5077175;28;20032;-68
2021/03/08 08:46:24;;;;;;;55.08;29.58;;;204.80;1177.60;;;;;;5094599;28;20031;-68
2021/03/08 08:49:07;;;;;;;42.47;26.42;;;204.90;1152.00;;;;;;5094520;28;20374;-68
2021/03/08 08:51:56;;;;;;;43.50;27.80;;;180.00;1152.00;;;;;;5094810;28;20425;-68
2021/03/08 08:54:27;;;;;;;51.90;31.23;;;204.80;1152.00;;;;;;5092736;28;20048;-66
2021/03/08 08:57:13;;;;;;;52.75;29.95;;;204.90;1177.60;;;;;;5093405;28;20032;-68
2021/03/08 08:59:48;;;;;;;40.75;23.95;;;180.10;1152.00;;;;;;5093369;28;20560;-67
2021/03/08 09:04:44;;;;;;;43.30;27.65;;;204.90;1152.00;;;;;;5093927;28;20028;-67
2021/03/08 09:07:18;;;;;;;41.25;24.83;;;205.10;1126.40;;;;;;5093686;28;20482;-68
2021/03/08 09:09:47;;;;;;;36.08;21.65;;;205.10;1100.80;;;;;;5093586;28;20067;-66
2021/03/08 09:12:45;;;;;;;38.47;22.40;;;205.10;1100.80;;;;;;5093846;28;20492;-67
2021/03/08 09:15:22;;;;;;;44.47;26.83;;;205.30;1075.20;;;;;;4992347;28;20030;-67
2021/03/08 09:17:51;;;;;;;51.17;30.63;;;205.30;1100.80;;;;;;4991773;28;20038;-68
2021/03/08 09:20:30;;;;;;;47.65;28.77;;;205.50;1100.80;;;;;;4991832;28;20081;-66
2021/03/08 09:23:01;;;;;;;50.38;30.55;;;205.50;1100.80;;;;;;4991647;28;20404;-66
2021/03/08 09:25:38;;;;;;;48.67;29.33;;;205.40;1126.40;;;;;;4992157;28;20063;-66
2021/03/08 09:28:10;;;;;;;49.45;30.85;;;205.50;1126.40;;;;;;4976222;28;20500;-66
2021/03/08 09:30:44;;;;;;;54.58;31.58;;;205.60;1126.40;;;;;;4992665;28;20512;-68
2021/03/08 09:33:17;;;;;;;51.50;31.20;;;230.40;1126.40;;;;;;4993150;28;20508;-68
2021/03/08 09:35:50;;;;;;;48.17;29.25;;;230.40;1126.40;;;;;;4993287;28;20540;-67
2021/03/08 09:38:21;;;;;;;45.05;27.27;;;230.50;1100.80;;;;;;4993736;28;20053;-69
2021/03/08 09:40:58;;;;;;;44.05;27.67;;;230.50;1100.80;;;;;;4992717;28;20030;-68
2021/03/08 09:43:32;;;;;;;50.15;29.02;;;230.40;1100.80;;;;;;4993001;28;20041;-68
2021/03/08 09:46:00;;;;;;;46.63;26.70;;;205.70;1126.40;;;;;;4992962;28;20027;-67
2021/03/08 09:48:31;;;;;;;47.83;29.17;;;230.50;1075.20;;;;;;4992302;28;20030;-68
2021/03/08 09:51:03;;;;;;;48.15;29.63;;;230.70;1100.80;;;;;;5049801;28;20141;-67
2021/03/08 09:53:34;;;;;;;51.08;31.98;;;230.80;1075.20;;;;;;5093055;28;20078;-66
2021/03/08 09:56:08;;;;;;;44.00;28.02;;;230.70;1075.20;;;;;;5091933;28;20059;-68
2021/03/08 09:58:34;;;;;;;48.75;28.20;;;230.40;1100.80;;;;;;5092839;28;20086;-67
2021/03/08 10:01:10;;;;;;;44.33;29.10;;;230.60;1100.80;;;;;;5093224;28;20465;-67
2021/03/08 10:03:35;;;;;;;41.83;26.40;;;230.80;1075.20;;;;;;5085542;28;20028;-68
2021/03/08 10:06:01;;;;;;;44.22;26.98;;;230.80;1049.60;;;;;;5092363;28;20035;-68
2021/03/08 10:08:31;;;;;;;39.80;26.33;;;230.60;1049.60;;;;;;5074534;28;20028;-68
2021/03/08 10:10:57;;;;;;;38.10;24.92;;;230.80;1049.60;;;;;;5092694;28;20133;-67
2021/03/08 10:13:23;;;;;;;39.50;25.30;;;230.90;1024.00;;;;;;5092573;28;20020;-67
2021/03/08 10:15:57;;;;;;;34.58;22.88;;;231.00;1024.00;;;;;;5092583;28;20028;-67
2021/03/08 10:18:27;;;;;;;34.45;23.05;;;231.10;998.40;;;;;;5093184;28;20513;-69
2021/03/08 10:21:04;;;;;;;32.58;21.02;;;231.10;998.40;;;;;;5092527;28;20032;-67
2021/03/08 10:23:31;;;;;;;42.10;26.17;;;231.20;972.80;;;;;;5092154;28;20481;-66
2021/03/08 10:26:07;;;;;;;34.72;21.10;;;231.20;998.40;;;;;;5092723;28;20125;-67
2021/03/08 10:28:45;;;;;;;30.85;20.63;;;231.10;972.80;;;;;;5092198;28;20469;-65
2021/03/08 10:31:28;;;;;;;36.47;22.23;;;231.20;972.80;;;;;;5092163;28;20086;-67
2021/03/08 10:34:10;;;;;;;36.78;24.52;;;256.00;972.80;;;;;;5091257;28;20028;-67
2021/03/08 10:36:42;;;;;;;38.58;25.10;;;231.30;972.80;;;;;;5092509;28;20036;-66
2021/03/08 10:39:11;;;;;;;40.10;25.52;;;256.10;972.80;;;;;;5091322;28;20478;-67
2021/03/08 10:41:39;;;;;;;42.42;26.50;;;256.10;998.40;;;;;;5092530;28;20031;-66
2021/03/08 10:44:07;;;;;;;35.47;23.95;;;256.20;972.80;;;;;;5091837;28;20089;-67
2021/03/08 10:46:40;;;;;;;37.40;23.65;;;256.40;947.20;;;;;;5092353;28;20020;-67
2021/03/08 10:49:09;;;;;;;40.70;24.92;;;256.50;947.20;;;;;;5070087;28;20033;-68
2021/03/08 10:51:36;;;;;;;38.22;24.45;;;256.60;947.20;;;;;;5082604;28;20108;-66
2021/03/08 10:54:09;;;;;;;35.63;23.20;;;256.60;947.20;;;;;;5091892;28;20516;-67
2021/03/08 10:56:37;;;;;;;34.70;22.15;;;256.50;921.60;;;;;;5091721;28;20029;-67
2021/03/08 10:59:20;;;;;;;35.22;22.38;;;256.60;921.60;;;;;;5092028;28;20543;-70
2021/03/08 11:02:09;;;;;;;33.42;21.50;;;256.60;947.20;;;;;;5092162;28;20539;-67
2021/03/08 11:04:35;;;;;;;31.40;20.88;;;256.70;921.60;;;;;;5091725;28;20020;-68
2021/03/08 11:07:01;;;;;;;34.75;22.42;;;256.80;921.60;;;;;;5092033;28;20019;-67
2021/03/08 11:09:32;;;;;;;33.50;20.98;;;256.80;921.60;;;;;;5073583;28;20042;-68
2021/03/08 11:11:59;;;;;;;34.13;21.65;;;256.90;921.60;;;;;;5092473;28;20191;-67
2021/03/08 11:14:25;;;;;;;30.17;18.20;;;281.60;947.20;;;;;;5091673;28;20024;-66
2021/03/08 11:16:55;;;;;;;25.92;18.00;;;281.70;921.60;;;;;;5092296;28;20465;-66
2021/03/08 11:19:27;;;;;;;28.42;18.05;;;281.80;896.00;;;;;;5095049;28;20024;-66
2021/03/08 11:22:09;;;;;;;27.65;18.90;;;281.90;896.00;;;;;;5096194;28;20024;-66
2021/03/08 11:24:49;;;;;;;27.95;18.27;;;282.00;896.00;;;;;;5096252;28;20466;-66
2021/03/08 11:27:25;;;;;;;25.42;17.70;;;282.10;896.00;;;;;;5096671;28;20028;-66
2021/03/08 11:30:10;;;;;;;27.55;18.60;;;282.20;870.40;;;;;;5078303;28;20086;-66
2021/03/08 11:32:38;;;;;;;26.65;18.38;;;282.30;870.40;;;;;;5096323;28;20032;-66
2021/03/08 11:35:40;;;;;;;26.38;18.38;;;282.50;844.80;;;;;;5096188;28;20020;-64
2021/03/08 11:38:08;;;;;;;26.55;18.27;;;282.40;819.20;;;;;;5033984;28;20041;-65
2021/03/08 11:40:36;;;;;;;31.25;19.98;;;282.50;870.40;;;;;;5016922;28;20191;-66
2021/03/08 11:43:03;;;;;;;24.85;17.67;;;307.20;896.00;;;;;;5033555;28;20119;-64
2021/03/08 11:45:30;;;;;;;25.75;18.02;;;307.30;844.80;;;;;;5031673;28;20037;-66
2021/03/08 11:48:00;;;;;;;24.60;16.98;;;307.50;819.20;;;;;;5029709;28;20396;-64
2021/03/08 11:50:28;;;;;;;24.98;17.45;;;307.70;819.20;;;;;;5032805;28;20029;-63
2021/03/08 11:52:54;;;;;;;23.25;15.70;;;307.90;819.20;;;;;;5025091;28;20411;-64
2021/03/08 11:55:21;;;;;;;25.85;18.42;;;307.90;819.20;;;;;;5026315;28;20058;-64
2021/03/08 11:57:47;;;;;;;30.23;19.25;;;307.80;819.20;;;;;;5015495;28;20073;-63
2021/03/08 12:00:19;;;;;;;26.02;18.23;;;307.80;844.80;;;;;;5032896;28;20033;-67
2021/03/08 12:02:45;;;;;;;25.27;18.27;;;307.80;819.20;;;;;;5032309;28;20700;-67
2021/03/08 12:05:11;;;;;;;27.30;19.05;;;307.50;793.60;;;;;;5024253;28;20113;-71
2021/03/08 12:07:38;;;;;;;25.67;18.80;;;307.80;793.60;;;;;;5010436;28;20041;-70
2021/03/08 12:10:06;;;;;;;23.15;18.33;;;332.80;768.00;;;;;;5032369;28;20024;-67
2021/03/08 12:12:32;;;;;;;28.38;18.52;;;333.10;793.60;;;;;;5082050;28;20063;-69
2021/03/08 12:14:57;;;;;;;23.73;17.35;;;333.10;793.60;;;;;;5095193;28;20020;-69
2021/03/08 12:17:23;;;;;;;27.15;18.50;;;333.30;768.00;;;;;;5093386;28;20078;-69
2021/03/08 12:19:49;;;;;;;27.83;18.95;;;333.60;768.00;;;;;;5072532;28;20024;-66